sensor_id;sensor_type;location;lat;lon;timestamp;P1;durP1;ratioP1;P2;durP2;ratioP2
25479;SDS011;13393;49.378;8.686;2024-03-23T00:54:45;7.53;;;5.88;;
25479;SDS011;13393;49.378;8.686;2024-03-23T00:57:11;10.15;;;5.63;;
25479;SDS011;13393;49.378;8.686;2024-03-23T00:59:37;10.48;;;6.75;;
25479;SDS011;13393;49.378;8.686;2024-03-23T01:02:03;12.98;;;7.57;;
25479;SDS011;13393;49.378;8.686;2024-03-23T01:04:29;7.18;;;5.95;;
25479;SDS011;13393;49.378;8.686;2024-03-23T01:06:55;10.20;;;6.63;;
25479;SDS011;13393;49.378;8.686;2024-03-23T01:09:20;12.88;;;8.30;;
25479;SDS011;13393;49.378;8.686;2024-03-23T01:11:49;9.93;;;6.32;;
25479;SDS011;13393;49.378;8.686;2024-03-23T01:14:14;13.00;;;7.22;;
25479;SDS011;13393;49.378;8.686;2024-03-23T01:16:41;14.63;;;9.25;;
25479;SDS011;13393;49.378;8.686;2024-03-23T01:19:06;8.38;;;6.28;;
25479;SDS011;13393;49.378;8.686;2024-03-23T01:21:33;8.32;;;6.03;;
25479;SDS011;13393;49.378;8.686;2024-03-23T01:23:58;10.68;;;6.05;;
25479;SDS011;13393;49.378;8.686;2024-03-23T01:26:24;8.52;;;6.82;;
25479;SDS011;13393;49.378;8.686;2024-03-23T01:28:52;8.82;;;6.18;;
25479;SDS011;13393;49.378;8.686;2024-03-23T01:31:18;9.82;;;5.53;;
25479;SDS011;13393;49.378;8.686;2024-03-23T01:33:43;7.68;;;6.70;;
25479;SDS011;13393;49.378;8.686;2024-03-23T01:36:12;9.82;;;6.10;;
25479;SDS011;13393;49.378;8.686;2024-03-23T01:38:37;9.50;;;6.25;;
25479;SDS011;13393;49.378;8.686;2024-03-23T01:41:04;8.07;;;6.35;;
25479;SDS011;13393;49.378;8.686;2024-03-23T01:43:30;10.80;;;6.60;;
25479;SDS011;13393;49.378;8.686;2024-03-23T01:45:58;13.77;;;8.82;;
25479;SDS011;13393;49.378;8.686;2024-03-23T01:48:24;13.73;;;8.10;;
25479;SDS011;13393;49.378;8.686;2024-03-23T01:50:50;11.80;;;8.40;;
25479;SDS011;13393;49.378;8.686;2024-03-23T01:53:16;8.55;;;6.55;;
25479;SDS011;13393;49.378;8.686;2024-03-23T01:55:44;10.07;;;6.90;;
25479;SDS011;13393;49.378;8.686;2024-03-23T01:58:10;7.13;;;5.82;;
25479;SDS011;13393;49.378;8.686;2024-03-23T02:00:36;9.02;;;6.70;;
25479;SDS011;13393;49.378;8.686;2024-03-23T02:03:06;9.18;;;5.65;;
25479;SDS011;13393;49.378;8.686;2024-03-23T02:05:50;9.40;;;5.95;;
25479;SDS011;13393;49.378;8.686;2024-03-23T02:08:17;11.65;;;6.97;;
25479;SDS011;13393;49.378;8.686;2024-03-23T02:10:43;9.23;;;5.53;;
25479;SDS011;13393;49.378;8.686;2024-03-23T02:13:10;9.02;;;5.93;;
25479;SDS011;13393;49.378;8.686;2024-03-23T02:15:36;9.70;;;5.70;;
25479;SDS011;13393;49.378;8.686;2024-03-23T02:18:03;6.78;;;5.18;;
25479;SDS011;13393;49.378;8.686;2024-03-23T02:20:30;8.88;;;5.63;;
25479;SDS011;13393;49.378;8.686;2024-03-23T02:22:57;9.68;;;6.43;;
25479;SDS011;13393;49.378;8.686;2024-03-23T02:25:23;11.05;;;5.93;;
25479;SDS011;13393;49.378;8.686;2024-03-23T02:27:49;6.47;;;4.90;;
25479;SDS011;13393;49.378;8.686;2024-03-23T02:30:15;8.25;;;5.20;;
25479;SDS011;13393;49.378;8.686;2024-03-23T02:32:40;14.02;;;6.55;;
25479;SDS011;13393;49.378;8.686;2024-03-23T02:35:07;6.45;;;5.00;;
25479;SDS011;13393;49.378;8.686;2024-03-23T02:37:32;8.70;;;6.10;;
25479;SDS011;13393;49.378;8.686;2024-03-23T02:40:00;7.10;;;5.60;;
25479;SDS011;13393;49.378;8.686;2024-03-23T02:42:25;9.93;;;5.70;;
25479;SDS011;13393;49.378;8.686;2024-03-23T02:44:52;7.45;;;5.05;;
25479;SDS011;13393;49.378;8.686;2024-03-23T02:47:17;7.55;;;5.00;;
25479;SDS011;13393;49.378;8.686;2024-03-23T02:49:44;6.13;;;4.80;;
25479;SDS011;13393;49.378;8.686;2024-03-23T02:52:09;7.25;;;5.00;;
25479;SDS011;13393;49.378;8.686;2024-03-23T02:54:36;7.53;;;4.80;;
25479;SDS011;13393;49.378;8.686;2024-03-23T02:57:03;9.77;;;5.38;;
25479;SDS011;13393;49.378;8.686;2024-03-23T02:59:29;8.05;;;5.32;;
25479;SDS011;13393;49.378;8.686;2024-03-23T03:01:55;7.65;;;5.63;;
25479;SDS011;13393;49.378;8.686;2024-03-23T03:04:21;7.80;;;5.10;;
25479;SDS011;13393;49.378;8.686;2024-03-23T03:06:47;6.80;;;5.43;;
25479;SDS011;13393;49.378;8.686;2024-03-23T03:09:13;9.43;;;6.00;;
25479;SDS011;13393;49.378;8.686;2024-03-23T03:11:39;7.13;;;4.60;;
25479;SDS011;13393;49.378;8.686;2024-03-23T03:14:06;8.45;;;4.63;;
25479;SDS011;13393;49.378;8.686;2024-03-23T03:16:32;8.15;;;4.63;;
25479;SDS011;13393;49.378;8.686;2024-03-23T03:18:59;10.88;;;5.47;;
25479;SDS011;13393;49.378;8.686;2024-03-23T03:21:25;8.18;;;5.03;;
25479;SDS011;13393;49.378;8.686;2024-03-23T03:23:52;7.57;;;4.57;;
25479;SDS011;13393;49.378;8.686;2024-03-23T03:26:17;11.98;;;5.25;;
25479;SDS011;13393;49.378;8.686;2024-03-23T03:28:44;11.13;;;5.47;;
25479;SDS011;13393;49.378;8.686;2024-03-23T03:31:15;6.53;;;5.15;;
25479;SDS011;13393;49.378;8.686;2024-03-23T03:33:41;13.48;;;5.45;;
25479;SDS011;13393;49.378;8.686;2024-03-23T03:36:07;8.27;;;5.57;;
25479;SDS011;13393;49.378;8.686;2024-03-23T03:38:33;9.90;;;5.70;;
25479;SDS011;13393;49.378;8.686;2024-03-23T03:41:00;11.18;;;5.10;;
25479;SDS011;13393;49.378;8.686;2024-03-23T03:43:26;9.95;;;6.20;;
25479;SDS011;13393;49.378;8.686;2024-03-23T03:45:52;9.98;;;6.30;;
25479;SDS011;13393;49.378;8.686;2024-03-23T03:48:20;12.00;;;6.55;;
25479;SDS011;13393;49.378;8.686;2024-03-23T03:50:45;13.63;;;6.30;;
25479;SDS011;13393;49.378;8.686;2024-03-23T03:53:12;9.98;;;5.90;;
25479;SDS011;13393;49.378;8.686;2024-03-23T03:55:37;10.43;;;6.15;;
25479;SDS011;13393;49.378;8.686;2024-03-23T03:58:04;7.45;;;5.85;;
25479;SDS011;13393;49.378;8.686;2024-03-23T04:00:29;9.07;;;6.07;;
25479;SDS011;13393;49.378;8.686;2024-03-23T04:02:56;9.90;;;5.82;;
25479;SDS011;13393;49.378;8.686;2024-03-23T04:05:22;9.52;;;6.25;;
25479;SDS011;13393;49.378;8.686;2024-03-23T04:07:49;10.23;;;6.13;;
25479;SDS011;13393;49.378;8.686;2024-03-23T04:10:14;6.50;;;5.80;;
25479;SDS011;13393;49.378;8.686;2024-03-23T04:12:41;10.75;;;7.40;;
25479;SDS011;13393;49.378;8.686;2024-03-23T04:15:06;9.48;;;7.22;;
25479;SDS011;13393;49.378;8.686;2024-03-23T04:17:33;9.80;;;7.82;;
25479;SDS011;13393;49.378;8.686;2024-03-23T04:19:59;11.55;;;7.60;;
25479;SDS011;13393;49.378;8.686;2024-03-23T04:22:27;14.75;;;7.90;;
25479;SDS011;13393;49.378;8.686;2024-03-23T04:24:52;11.60;;;8.73;;
25479;SDS011;13393;49.378;8.686;2024-03-23T04:27:19;13.05;;;7.60;;
25479;SDS011;13393;49.378;8.686;2024-03-23T04:29:46;10.18;;;8.27;;
25479;SDS011;13393;49.378;8.686;2024-03-23T04:32:12;13.93;;;8.70;;
25479;SDS011;13393;49.378;8.686;2024-03-23T04:34:39;15.95;;;9.27;;
25479;SDS011;13393;49.378;8.686;2024-03-23T04:37:05;14.02;;;9.80;;
25479;SDS011;13393;49.378;8.686;2024-03-23T04:39:32;14.45;;;10.50;;
25479;SDS011;13393;49.378;8.686;2024-03-23T04:41:58;20.02;;;10.57;;
25479;SDS011;13393;49.378;8.686;2024-03-23T04:44:26;16.10;;;11.43;;
25479;SDS011;13393;49.378;8.686;2024-03-23T04:46:52;15.65;;;11.32;;
25479;SDS011;13393;49.378;8.686;2024-03-23T04:49:20;15.73;;;11.10;;
25479;SDS011;13393;49.378;8.686;2024-03-23T04:51:47;18.25;;;12.38;;
25479;SDS011;13393;49.378;8.686;2024-03-23T04:54:12;20.75;;;10.90;;
25479;SDS011;13393;49.378;8.686;2024-03-23T04:56:40;18.23;;;11.70;;
25479;SDS011;13393;49.378;8.686;2024-03-23T04:59:06;18.45;;;11.38;;
25479;SDS011;13393;49.378;8.686;2024-03-23T05:01:32;15.30;;;10.55;;
25479;SDS011;13393;49.378;8.686;2024-03-23T05:03:58;17.40;;;10.05;;
25479;SDS011;13393;49.378;8.686;2024-03-23T05:06:25;17.58;;;10.07;;
25479;SDS011;13393;49.378;8.686;2024-03-23T05:08:50;15.40;;;9.02;;
25479;SDS011;13393;49.378;8.686;2024-03-23T05:11:17;12.52;;;9.63;;
25479;SDS011;13393;49.378;8.686;2024-03-23T05:13:43;15.60;;;10.77;;
25479;SDS011;13393;49.378;8.686;2024-03-23T05:16:10;12.70;;;8.75;;
25479;SDS011;13393;49.378;8.686;2024-03-23T05:18:35;10.57;;;7.28;;
25479;SDS011;13393;49.378;8.686;2024-03-23T05:21:02;9.70;;;6.43;;
25479;SDS011;13393;49.378;8.686;2024-03-23T05:23:28;9.52;;;5.40;;
25479;SDS011;13393;49.378;8.686;2024-03-23T05:25:54;6.05;;;4.90;;
25479;SDS011;13393;49.378;8.686;2024-03-23T05:28:20;6.50;;;5.10;;
25479;SDS011;13393;49.378;8.686;2024-03-23T05:30:51;5.72;;;4.72;;
25479;SDS011;13393;49.378;8.686;2024-03-23T05:33:16;12.35;;;4.80;;
25479;SDS011;13393;49.378;8.686;2024-03-23T05:35:43;7.50;;;3.92;;
25479;SDS011;13393;49.378;8.686;2024-03-23T05:38:08;9.05;;;3.25;;
25479;SDS011;13393;49.378;8.686;2024-03-23T05:40:35;3.92;;;3.10;;
25479;SDS011;13393;49.378;8.686;2024-03-23T05:43:02;4.28;;;2.63;;
25479;SDS011;13393;49.378;8.686;2024-03-23T05:45:28;4.07;;;2.40;;
25479;SDS011;13393;49.378;8.686;2024-03-23T05:47:56;2.00;;;1.80;;
25479;SDS011;13393;49.378;8.686;2024-03-23T05:50:23;4.70;;;2.22;;
25479;SDS011;13393;49.378;8.686;2024-03-23T05:52:48;5.10;;;2.63;;
25479;SDS011;13393;49.378;8.686;2024-03-23T05:55:15;7.03;;;3.83;;
25479;SDS011;13393;49.378;8.686;2024-03-23T05:57:40;8.02;;;3.55;;
25479;SDS011;13393;49.378;8.686;2024-03-23T06:00:07;7.28;;;3.50;;
25479;SDS011;13393;49.378;8.686;2024-03-23T06:02:35;5.32;;;3.92;;
25479;SDS011;13393;49.378;8.686;2024-03-23T06:05:04;4.55;;;3.58;;
25479;SDS011;13393;49.378;8.686;2024-03-23T06:07:29;4.60;;;3.03;;
25479;SDS011;13393;49.378;8.686;2024-03-23T06:09:56;4.63;;;3.50;;
25479;SDS011;13393;49.378;8.686;2024-03-23T06:12:22;3.20;;;2.90;;
25479;SDS011;13393;49.378;8.686;2024-03-23T06:14:49;3.05;;;2.65;;
25479;SDS011;13393;49.378;8.686;2024-03-23T06:17:14;2.40;;;2.20;;
25479;SDS011;13393;49.378;8.686;2024-03-23T06:19:41;3.58;;;2.80;;
25479;SDS011;13393;49.378;8.686;2024-03-23T06:22:07;3.17;;;2.42;;
25479;SDS011;13393;49.378;8.686;2024-03-23T06:24:34;2.45;;;2.22;;
25479;SDS011;13393;49.378;8.686;2024-03-23T06:27:00;4.28;;;2.60;;
25479;SDS011;13393;49.378;8.686;2024-03-23T06:29:26;4.57;;;3.75;;
25479;SDS011;13393;49.378;8.686;2024-03-23T06:31:53;2.50;;;2.20;;
25479;SDS011;13393;49.378;8.686;2024-03-23T06:34:19;1.50;;;1.40;;
25479;SDS011;13393;49.378;8.686;2024-03-23T06:36:46;2.65;;;2.05;;
25479;SDS011;13393;49.378;8.686;2024-03-23T06:39:14;2.10;;;1.88;;
25479;SDS011;13393;49.378;8.686;2024-03-23T06:41:40;10.23;;;6.75;;
25479;SDS011;13393;49.378;8.686;2024-03-23T06:44:06;1.00;;;1.00;;
25479;SDS011;13393;49.378;8.686;2024-03-23T06:46:32;0.90;;;0.90;;
25479;SDS011;13393;49.378;8.686;2024-03-23T06:48:58;0.93;;;0.85;;
25479;SDS011;13393;49.378;8.686;2024-03-23T06:51:24;1.05;;;0.85;;
25479;SDS011;13393;49.378;8.686;2024-03-23T06:53:50;0.63;;;0.63;;
25479;SDS011;13393;49.378;8.686;2024-03-23T06:56:17;0.60;;;0.60;;
25479;SDS011;13393;49.378;8.686;2024-03-23T06:58:43;0.50;;;0.50;;
25479;SDS011;13393;49.378;8.686;2024-03-23T07:01:09;0.60;;;0.47;;
25479;SDS011;13393;49.378;8.686;2024-03-23T07:03:36;1.33;;;0.80;;
25479;SDS011;13393;49.378;8.686;2024-03-23T07:06:02;1.00;;;0.60;;
25479;SDS011;13393;49.378;8.686;2024-03-23T07:08:28;0.60;;;0.60;;
25479;SDS011;13393;49.378;8.686;2024-03-23T07:10:54;0.50;;;0.50;;
25479;SDS011;13393;49.378;8.686;2024-03-23T07:13:22;2.15;;;0.60;;
25479;SDS011;13393;49.378;8.686;2024-03-23T07:15:51;0.60;;;0.60;;
25479;SDS011;13393;49.378;8.686;2024-03-23T07:18:17;0.50;;;0.50;;
25479;SDS011;13393;49.378;8.686;2024-03-23T07:20:51;3.90;;;0.60;;
25479;SDS011;13393;49.378;8.686;2024-03-23T07:23:16;0.82;;;0.65;;
25479;SDS011;13393;49.378;8.686;2024-03-23T07:25:43;1.70;;;0.85;;
25479;SDS011;13393;49.378;8.686;2024-03-23T07:28:08;0.90;;;0.70;;
25479;SDS011;13393;49.378;8.686;2024-03-23T07:30:36;0.52;;;0.52;;
25479;SDS011;13393;49.378;8.686;2024-03-23T07:33:03;0.50;;;0.43;;
25479;SDS011;13393;49.378;8.686;2024-03-23T07:35:29;0.50;;;0.50;;
25479;SDS011;13393;49.378;8.686;2024-03-23T07:37:55;1.38;;;0.60;;
25479;SDS011;13393;49.378;8.686;2024-03-23T07:40:21;0.63;;;0.63;;
25479;SDS011;13393;49.378;8.686;2024-03-23T07:42:46;0.90;;;0.90;;
25479;SDS011;13393;49.378;8.686;2024-03-23T07:45:13;1.05;;;0.50;;
25479;SDS011;13393;49.378;8.686;2024-03-23T07:47:40;0.63;;;0.57;;
25479;SDS011;13393;49.378;8.686;2024-03-23T07:50:06;0.98;;;0.70;;
25479;SDS011;13393;49.378;8.686;2024-03-23T07:52:32;1.85;;;1.10;;
25479;SDS011;13393;49.378;8.686;2024-03-23T07:54:58;5.03;;;1.35;;
25479;SDS011;13393;49.378;8.686;2024-03-23T07:57:23;1.35;;;0.90;;
25479;SDS011;13393;49.378;8.686;2024-03-23T07:59:50;2.42;;;1.10;;
25479;SDS011;13393;49.378;8.686;2024-03-23T08:02:17;3.85;;;1.08;;
25479;SDS011;13393;49.378;8.686;2024-03-23T08:04:45;3.53;;;0.90;;
25479;SDS011;13393;49.378;8.686;2024-03-23T08:07:11;3.17;;;1.02;;
25479;SDS011;13393;49.378;8.686;2024-03-23T08:09:37;2.15;;;0.80;;
25479;SDS011;13393;49.378;8.686;2024-03-23T08:12:03;3.90;;;1.20;;
25479;SDS011;13393;49.378;8.686;2024-03-23T08:14:29;3.28;;;1.27;;
25479;SDS011;13393;49.378;8.686;2024-03-23T08:16:55;5.32;;;1.27;;
25479;SDS011;13393;49.378;8.686;2024-03-23T08:19:21;4.82;;;1.30;;
25479;SDS011;13393;49.378;8.686;2024-03-23T08:21:48;3.17;;;1.30;;
25479;SDS011;13393;49.378;8.686;2024-03-23T08:24:15;2.35;;;1.23;;
25479;SDS011;13393;49.378;8.686;2024-03-23T08:26:41;2.63;;;1.80;;
25479;SDS011;13393;49.378;8.686;2024-03-23T08:29:08;3.55;;;1.48;;
25479;SDS011;13393;49.378;8.686;2024-03-23T08:31:34;2.90;;;1.40;;
25479;SDS011;13393;49.378;8.686;2024-03-23T08:34:00;3.60;;;1.48;;
25479;SDS011;13393;49.378;8.686;2024-03-23T08:36:26;1.88;;;1.10;;
25479;SDS011;13393;49.378;8.686;2024-03-23T08:38:53;7.55;;;2.22;;
25479;SDS011;13393;49.378;8.686;2024-03-23T08:41:21;10.85;;;2.30;;
25479;SDS011;13393;49.378;8.686;2024-03-23T08:43:46;8.63;;;2.33;;
25479;SDS011;13393;49.378;8.686;2024-03-23T08:46:13;8.05;;;1.77;;
25479;SDS011;13393;49.378;8.686;2024-03-23T08:48:39;7.95;;;1.95;;
25479;SDS011;13393;49.378;8.686;2024-03-23T08:51:08;5.88;;;2.00;;
25479;SDS011;13393;49.378;8.686;2024-03-23T08:53:34;6.82;;;2.00;;
25479;SDS011;13393;49.378;8.686;2024-03-23T08:56:02;5.10;;;2.00;;
25479;SDS011;13393;49.378;8.686;2024-03-23T08:58:28;6.80;;;2.28;;
25479;SDS011;13393;49.378;8.686;2024-03-23T09:00:56;5.60;;;2.00;;
25479;SDS011;13393;49.378;8.686;2024-03-23T09:03:21;3.97;;;2.08;;
25479;SDS011;13393;49.378;8.686;2024-03-23T09:05:48;6.05;;;2.25;;
25479;SDS011;13393;49.378;8.686;2024-03-23T09:08:14;4.03;;;2.13;;
25479;SDS011;13393;49.378;8.686;2024-03-23T09:10:40;6.47;;;1.90;;
25479;SDS011;13393;49.378;8.686;2024-03-23T09:13:07;7.32;;;2.10;;
25479;SDS011;13393;49.378;8.686;2024-03-23T09:15:34;4.00;;;1.90;;
25479;SDS011;13393;49.378;8.686;2024-03-23T09:18:00;8.40;;;2.72;;
25479;SDS011;13393;49.378;8.686;2024-03-23T09:20:26;3.78;;;2.17;;
25479;SDS011;13393;49.378;8.686;2024-03-23T09:22:53;7.38;;;2.10;;
25479;SDS011;13393;49.378;8.686;2024-03-23T09:25:19;9.70;;;2.47;;
25479;SDS011;13393;49.378;8.686;2024-03-23T09:27:45;7.18;;;2.60;;
25479;SDS011;13393;49.378;8.686;2024-03-23T09:30:14;6.18;;;3.22;;
25479;SDS011;13393;49.378;8.686;2024-03-23T09:32:39;7.28;;;3.22;;
25479;SDS011;13393;49.378;8.686;2024-03-23T09:35:06;6.97;;;2.50;;
25479;SDS011;13393;49.378;8.686;2024-03-23T09:37:31;6.43;;;2.17;;
25479;SDS011;13393;49.378;8.686;2024-03-23T09:39:58;6.57;;;2.75;;
25479;SDS011;13393;49.378;8.686;2024-03-23T09:42:23;6.68;;;2.17;;
25479;SDS011;13393;49.378;8.686;2024-03-23T09:44:50;7.65;;;2.67;;
25479;SDS011;13393;49.378;8.686;2024-03-23T09:47:17;6.65;;;2.60;;
25479;SDS011;13393;49.378;8.686;2024-03-23T09:49:44;5.95;;;2.63;;
25479;SDS011;13393;49.378;8.686;2024-03-23T09:52:10;7.53;;;2.90;;
25479;SDS011;13393;49.378;8.686;2024-03-23T09:54:36;7.88;;;2.67;;
25479;SDS011;13393;49.378;8.686;2024-03-23T09:57:04;6.03;;;2.30;;
25479;SDS011;13393;49.378;8.686;2024-03-23T09:59:31;5.90;;;2.38;;
25479;SDS011;13393;49.378;8.686;2024-03-23T10:01:58;4.57;;;2.33;;
25479;SDS011;13393;49.378;8.686;2024-03-23T10:07:13;7.50;;;2.53;;
25479;SDS011;13393;49.378;8.686;2024-03-23T10:09:39;10.60;;;2.45;;
25479;SDS011;13393;49.378;8.686;2024-03-23T10:12:08;5.10;;;2.80;;
25479;SDS011;13393;49.378;8.686;2024-03-23T10:14:35;8.00;;;2.70;;
25479;SDS011;13393;49.378;8.686;2024-03-23T10:19:43;8.13;;;2.75;;
25479;SDS011;13393;49.378;8.686;2024-03-23T10:22:09;5.05;;;2.38;;
25479;SDS011;13393;49.378;8.686;2024-03-23T10:24:37;5.07;;;2.58;;
25479;SDS011;13393;49.378;8.686;2024-03-23T10:27:03;11.52;;;3.00;;
25479;SDS011;13393;49.378;8.686;2024-03-23T10:29:30;7.75;;;2.63;;
25479;SDS011;13393;49.378;8.686;2024-03-23T10:32:07;9.07;;;2.67;;
25479;SDS011;13393;49.378;8.686;2024-03-23T10:34:34;10.35;;;2.60;;
25479;SDS011;13393;49.378;8.686;2024-03-23T10:37:00;7.35;;;2.70;;
25479;SDS011;13393;49.378;8.686;2024-03-23T10:39:28;6.55;;;2.45;;
25479;SDS011;13393;49.378;8.686;2024-03-23T10:41:55;10.07;;;2.80;;
25479;SDS011;13393;49.378;8.686;2024-03-23T10:44:22;8.02;;;2.45;;
25479;SDS011;13393;49.378;8.686;2024-03-23T10:46:50;11.05;;;2.97;;
25479;SDS011;13393;49.378;8.686;2024-03-23T10:49:23;6.35;;;2.30;;
25479;SDS011;13393;49.378;8.686;2024-03-23T10:51:50;9.75;;;2.53;;
25479;SDS011;13393;49.378;8.686;2024-03-23T10:54:17;5.53;;;2.10;;
25479;SDS011;13393;49.378;8.686;2024-03-23T10:56:43;8.57;;;2.72;;
25479;SDS011;13393;49.378;8.686;2024-03-23T10:59:12;8.05;;;2.60;;
25479;SDS011;13393;49.378;8.686;2024-03-23T11:01:43;8.63;;;2.65;;
25479;SDS011;13393;49.378;8.686;2024-03-23T11:04:29;7.40;;;2.63;;
25479;SDS011;13393;49.378;8.686;2024-03-23T11:06:55;5.13;;;2.20;;
25479;SDS011;13393;49.378;8.686;2024-03-23T11:12:17;7.10;;;2.30;;
25479;SDS011;13393;49.378;8.686;2024-03-23T11:14:52;7.22;;;2.42;;
25479;SDS011;13393;49.378;8.686;2024-03-23T11:17:19;6.28;;;2.10;;
25479;SDS011;13393;49.378;8.686;2024-03-23T11:19:52;5.47;;;2.00;;
25479;SDS011;13393;49.378;8.686;2024-03-23T11:22:21;6.07;;;1.90;;
25479;SDS011;13393;49.378;8.686;2024-03-23T11:25:04;5.30;;;1.92;;
25479;SDS011;13393;49.378;8.686;2024-03-23T11:27:37;6.07;;;1.98;;
25479;SDS011;13393;49.378;8.686;2024-03-23T11:30:15;4.75;;;2.10;;
25479;SDS011;13393;49.378;8.686;2024-03-23T11:32:41;8.65;;;2.10;;
25479;SDS011;13393;49.378;8.686;2024-03-23T11:35:08;4.60;;;2.05;;
25479;SDS011;13393;49.378;8.686;2024-03-23T11:37:35;5.47;;;1.90;;
25479;SDS011;13393;49.378;8.686;2024-03-23T11:40:16;6.30;;;1.90;;
25479;SDS011;13393;49.378;8.686;2024-03-23T11:42:41;7.25;;;1.60;;
25479;SDS011;13393;49.378;8.686;2024-03-23T11:45:08;6.15;;;1.85;;
25479;SDS011;13393;49.378;8.686;2024-03-23T11:47:35;8.40;;;2.22;;
25479;SDS011;13393;49.378;8.686;2024-03-23T11:50:01;3.75;;;1.65;;
25479;SDS011;13393;49.378;8.686;2024-03-23T11:52:27;4.03;;;1.88;;
25479;SDS011;13393;49.378;8.686;2024-03-23T11:55:02;6.72;;;2.55;;
25479;SDS011;13393;49.378;8.686;2024-03-23T11:57:28;4.80;;;1.98;;
25479;SDS011;13393;49.378;8.686;2024-03-23T11:59:55;5.22;;;1.80;;
25479;SDS011;13393;49.378;8.686;2024-03-23T12:02:21;5.85;;;2.10;;
25479;SDS011;13393;49.378;8.686;2024-03-23T12:04:49;8.65;;;2.03;;
25479;SDS011;13393;49.378;8.686;2024-03-23T12:07:14;6.55;;;1.77;;
25479;SDS011;13393;49.378;8.686;2024-03-23T12:09:43;9.15;;;2.30;;
25479;SDS011;13393;49.378;8.686;2024-03-23T12:12:13;6.57;;;2.28;;
25479;SDS011;13393;49.378;8.686;2024-03-23T12:14:41;6.38;;;2.55;;
25479;SDS011;13393;49.378;8.686;2024-03-23T12:17:13;4.50;;;2.45;;
25479;SDS011;13393;49.378;8.686;2024-03-23T12:19:40;8.73;;;3.47;;
25479;SDS011;13393;49.378;8.686;2024-03-23T12:22:08;7.10;;;2.95;;
25479;SDS011;13393;49.378;8.686;2024-03-23T12:24:34;6.43;;;3.03;;
25479;SDS011;13393;49.378;8.686;2024-03-23T12:27:00;6.55;;;2.63;;
25479;SDS011;13393;49.378;8.686;2024-03-23T12:29:28;6.70;;;3.58;;
25479;SDS011;13393;49.378;8.686;2024-03-23T12:31:54;10.80;;;3.00;;
25479;SDS011;13393;49.378;8.686;2024-03-23T12:34:21;6.25;;;3.00;;
25479;SDS011;13393;49.378;8.686;2024-03-23T12:36:47;7.03;;;3.15;;
25479;SDS011;13393;49.378;8.686;2024-03-23T12:39:14;7.88;;;2.63;;
25479;SDS011;13393;49.378;8.686;2024-03-23T12:41:40;5.50;;;2.80;;
25479;SDS011;13393;49.378;8.686;2024-03-23T12:44:07;37.25;;;3.70;;
25479;SDS011;13393;49.378;8.686;2024-03-23T12:46:38;6.07;;;2.60;;
25479;SDS011;13393;49.378;8.686;2024-03-23T12:49:04;7.88;;;2.85;;
25479;SDS011;13393;49.378;8.686;2024-03-23T12:51:30;7.13;;;3.30;;
25479;SDS011;13393;49.378;8.686;2024-03-23T12:53:58;5.30;;;3.20;;
25479;SDS011;13393;49.378;8.686;2024-03-23T12:56:25;4.22;;;2.20;;
25479;SDS011;13393;49.378;8.686;2024-03-23T12:58:53;7.38;;;2.40;;
25479;SDS011;13393;49.378;8.686;2024-03-23T13:01:20;7.05;;;2.50;;
25479;SDS011;13393;49.378;8.686;2024-03-23T13:03:46;5.07;;;2.42;;
25479;SDS011;13393;49.378;8.686;2024-03-23T13:06:12;7.43;;;2.40;;
25479;SDS011;13393;49.378;8.686;2024-03-23T13:08:38;7.57;;;2.38;;
25479;SDS011;13393;49.378;8.686;2024-03-23T13:11:05;6.68;;;2.15;;
25479;SDS011;13393;49.378;8.686;2024-03-23T13:13:35;5.20;;;2.00;;
25479;SDS011;13393;49.378;8.686;2024-03-23T13:16:00;5.28;;;1.00;;
25479;SDS011;13393;49.378;8.686;2024-03-23T13:18:27;1.95;;;1.00;;
25479;SDS011;13393;49.378;8.686;2024-03-23T13:20:53;1.02;;;0.40;;
25479;SDS011;13393;49.378;8.686;2024-03-23T13:23:19;1.02;;;0.68;;
25479;SDS011;13393;49.378;8.686;2024-03-23T13:25:49;5.13;;;1.30;;
25479;SDS011;13393;49.378;8.686;2024-03-23T13:28:17;2.03;;;0.95;;
25479;SDS011;13393;49.378;8.686;2024-03-23T13:30:50;2.70;;;1.33;;
25479;SDS011;13393;49.378;8.686;2024-03-23T13:33:17;1.73;;;0.98;;
25479;SDS011;13393;49.378;8.686;2024-03-23T13:35:48;7.35;;;4.22;;
25479;SDS011;13393;49.378;8.686;2024-03-23T13:38:15;1.40;;;1.10;;
25479;SDS011;13393;49.378;8.686;2024-03-23T13:40:48;1.60;;;1.25;;
25479;SDS011;13393;49.378;8.686;2024-03-23T13:43:15;3.47;;;2.08;;
25479;SDS011;13393;49.378;8.686;2024-03-23T13:45:40;1.95;;;1.20;;
25479;SDS011;13393;49.378;8.686;2024-03-23T13:48:08;2.28;;;1.80;;
25479;SDS011;13393;49.378;8.686;2024-03-23T13:50:35;3.22;;;0.95;;
25479;SDS011;13393;49.378;8.686;2024-03-23T13:53:03;7.13;;;3.55;;
25479;SDS011;13393;49.378;8.686;2024-03-23T13:55:28;4.30;;;3.30;;
25479;SDS011;13393;49.378;8.686;2024-03-23T13:57:55;2.35;;;1.25;;
25479;SDS011;13393;49.378;8.686;2024-03-23T14:00:20;1.38;;;0.65;;
25479;SDS011;13393;49.378;8.686;2024-03-23T14:02:47;5.00;;;2.70;;
25479;SDS011;13393;49.378;8.686;2024-03-23T14:05:14;6.63;;;4.13;;
25479;SDS011;13393;49.378;8.686;2024-03-23T14:07:40;1.48;;;1.08;;
25479;SDS011;13393;49.378;8.686;2024-03-23T14:10:06;10.93;;;6.60;;
25479;SDS011;13393;49.378;8.686;2024-03-23T14:12:35;5.45;;;2.13;;
25479;SDS011;13393;49.378;8.686;2024-03-23T14:15:01;1.33;;;1.00;;
25479;SDS011;13393;49.378;8.686;2024-03-23T14:17:29;8.20;;;4.65;;
25479;SDS011;13393;49.378;8.686;2024-03-23T14:19:55;9.40;;;5.18;;
25479;SDS011;13393;49.378;8.686;2024-03-23T14:22:26;3.30;;;1.63;;
25479;SDS011;13393;49.378;8.686;2024-03-23T14:24:52;3.05;;;1.33;;
25479;SDS011;13393;49.378;8.686;2024-03-23T14:27:19;2.90;;;1.23;;
25479;SDS011;13393;49.378;8.686;2024-03-23T14:29:45;1.63;;;0.77;;
25479;SDS011;13393;49.378;8.686;2024-03-23T14:32:11;3.25;;;1.90;;
25479;SDS011;13393;49.378;8.686;2024-03-23T14:34:37;5.75;;;2.33;;
25479;SDS011;13393;49.378;8.686;2024-03-23T14:37:04;1.77;;;0.98;;
25479;SDS011;13393;49.378;8.686;2024-03-23T14:39:32;2.53;;;1.20;;
25479;SDS011;13393;49.378;8.686;2024-03-23T14:41:59;2.58;;;0.77;;
25479;SDS011;13393;49.378;8.686;2024-03-23T14:44:24;2.30;;;1.17;;
25479;SDS011;13393;49.378;8.686;2024-03-23T14:46:51;2.53;;;0.85;;
25479;SDS011;13393;49.378;8.686;2024-03-23T14:49:16;1.65;;;0.73;;
25479;SDS011;13393;49.378;8.686;2024-03-23T14:51:43;1.48;;;0.98;;
25479;SDS011;13393;49.378;8.686;2024-03-23T14:54:08;1.60;;;0.73;;
25479;SDS011;13393;49.378;8.686;2024-03-23T14:56:39;1.63;;;0.90;;
25479;SDS011;13393;49.378;8.686;2024-03-23T14:59:05;1.30;;;0.70;;
25479;SDS011;13393;49.378;8.686;2024-03-23T15:01:33;1.90;;;0.70;;
25479;SDS011;13393;49.378;8.686;2024-03-23T15:03:59;1.30;;;0.98;;
25479;SDS011;13393;49.378;8.686;2024-03-23T15:06:26;1.27;;;0.68;;
25479;SDS011;13393;49.378;8.686;2024-03-23T15:08:51;1.35;;;0.90;;
25479;SDS011;13393;49.378;8.686;2024-03-23T15:11:19;2.20;;;0.90;;
25479;SDS011;13393;49.378;8.686;2024-03-23T15:13:46;2.28;;;0.60;;
25479;SDS011;13393;49.378;8.686;2024-03-23T15:16:16;3.70;;;0.85;;
25479;SDS011;13393;49.378;8.686;2024-03-23T15:18:43;2.40;;;0.82;;
25479;SDS011;13393;49.378;8.686;2024-03-23T15:21:09;1.15;;;0.70;;
25479;SDS011;13393;49.378;8.686;2024-03-23T15:23:36;2.03;;;0.98;;
25479;SDS011;13393;49.378;8.686;2024-03-23T15:26:03;2.35;;;0.80;;
25479;SDS011;13393;49.378;8.686;2024-03-23T15:28:29;1.88;;;1.00;;
25479;SDS011;13393;49.378;8.686;2024-03-23T15:31:08;5.82;;;1.10;;
25479;SDS011;13393;49.378;8.686;2024-03-23T15:33:34;3.10;;;0.93;;
25479;SDS011;13393;49.378;8.686;2024-03-23T15:36:01;1.63;;;0.93;;
25479;SDS011;13393;49.378;8.686;2024-03-23T15:38:27;1.55;;;1.05;;
25479;SDS011;13393;49.378;8.686;2024-03-23T15:40:54;3.00;;;1.23;;
25479;SDS011;13393;49.378;8.686;2024-03-23T15:43:19;2.72;;;0.90;;
25479;SDS011;13393;49.378;8.686;2024-03-23T15:45:53;3.00;;;0.70;;